Monarch, Colorado
Current Conditions -  °F | °C
As of 7:36 AM on Sunday 23 Nov 2014 (Local Time) from KMYP Reporting Station
Overcast Overcast  
Wind Chill: -3°   Ceiling: 400
Heat Index: 12°   Visibility: NA
Dew Point: 10°   Wind: 13mph
Humidity: 92%   Direction: 280°W
Pressure: 29.81"   Gusts: NA
Location:  38.54°N, 106.31°W
Report Text: KMYP 231436Z AUTO 28011KT OVC004 M11/M12 A2981 RMK AO2 PWINO
Loading
Personal Weather Stations






























Interactive Weather Map New forecast layout! Learn more

10-Day Weather Forecast

Advertisements
Track Severe Weather on mobile